sensor_id;sensor_type;location;lat;lon;timestamp;pressure;altitude;pressure_sealevel;temperature;humidity
12868;BME280;33517;49.866;8.320;2023-03-26T00:00:31;99915.34;;;8.55;88.52
12868;BME280;33517;49.866;8.320;2023-03-26T00:03:24;99909.44;;;8.45;88.18
12868;BME280;33517;49.866;8.320;2023-03-26T00:06:16;99909.25;;;8.38;88.96
12868;BME280;33517;49.866;8.320;2023-03-26T00:09:09;99908.28;;;8.31;90.00
12868;BME280;33517;49.866;8.320;2023-03-26T00:12:02;99911.38;;;8.27;90.37
12868;BME280;33517;49.866;8.320;2023-03-26T00:14:56;99903.31;;;8.20;89.07
12868;BME280;33517;49.866;8.320;2023-03-26T00:17:48;99901.00;;;8.17;88.56
12868;BME280;33517;49.866;8.320;2023-03-26T00:20:40;99901.81;;;8.10;90.62
12868;BME280;33517;49.866;8.320;2023-03-26T00:23:33;99894.13;;;8.08;89.51
12868;BME280;33517;49.866;8.320;2023-03-26T00:26:25;99896.91;;;8.07;90.41
12868;BME280;33517;49.866;8.320;2023-03-26T00:29:18;99894.94;;;8.09;89.59
12868;BME280;33517;49.866;8.320;2023-03-26T00:32:13;99891.50;;;8.08;90.65
12868;BME280;33517;49.866;8.320;2023-03-26T00:35:06;99894.81;;;8.18;90.20
12868;BME280;33517;49.866;8.320;2023-03-26T00:37:58;99901.19;;;8.24;89.55
12868;BME280;33517;49.866;8.320;2023-03-26T00:40:51;99901.19;;;8.24;90.04
12868;BME280;33517;49.866;8.320;2023-03-26T00:43:43;99894.28;;;8.23;90.34
12868;BME280;33517;49.866;8.320;2023-03-26T00:46:36;99891.84;;;8.21;88.33
12868;BME280;33517;49.866;8.320;2023-03-26T00:49:29;99884.13;;;8.12;88.94
12868;BME280;33517;49.866;8.320;2023-03-26T00:52:21;99881.50;;;8.04;89.11
12868;BME280;33517;49.866;8.320;2023-03-26T00:55:13;99880.22;;;8.00;89.93
12868;BME280;33517;49.866;8.320;2023-03-26T00:58:05;99882.84;;;8.00;90.33
12868;BME280;33517;49.866;8.320;2023-03-26T01:01:01;99884.63;;;7.99;89.85
12868;BME280;33517;49.866;8.320;2023-03-26T01:03:55;99877.91;;;8.05;88.70
12868;BME280;33517;49.866;8.320;2023-03-26T01:06:50;99872.50;;;8.06;89.07
12868;BME280;33517;49.866;8.320;2023-03-26T01:09:45;99871.53;;;8.07;88.60
12868;BME280;33517;49.866;8.320;2023-03-26T01:12:39;99871.03;;;8.12;88.52
12868;BME280;33517;49.866;8.320;2023-03-26T01:15:31;99871.03;;;8.12;88.89
12868;BME280;33517;49.866;8.320;2023-03-26T01:18:29;99872.34;;;8.08;88.67
12868;BME280;33517;49.866;8.320;2023-03-26T01:21:25;99861.06;;;8.07;88.97
12868;BME280;33517;49.866;8.320;2023-03-26T01:24:20;99860.06;;;8.16;87.61
12868;BME280;33517;49.866;8.320;2023-03-26T01:27:22;99851.09;;;8.27;87.86
12868;BME280;33517;49.866;8.320;2023-03-26T01:30:20;99849.59;;;8.32;87.33
12868;BME280;33517;49.866;8.320;2023-03-26T01:33:22;99842.41;;;8.34;87.86
12868;BME280;33517;49.866;8.320;2023-03-26T01:36:23;99836.34;;;8.26;87.54
12868;BME280;33517;49.866;8.320;2023-03-26T01:39:23;99835.50;;;8.17;87.37
12868;BME280;33517;49.866;8.320;2023-03-26T01:42:20;99832.06;;;8.09;87.51
12868;BME280;33517;49.866;8.320;2023-03-26T01:45:17;99829.63;;;8.07;86.99
12868;BME280;33517;49.866;8.320;2023-03-26T01:48:11;99825.19;;;8.16;87.66
12868;BME280;33517;49.866;8.320;2023-03-26T01:51:04;99819.63;;;8.27;88.67
12868;BME280;33517;49.866;8.320;2023-03-26T01:53:56;99809.97;;;8.35;89.28
12868;BME280;33517;49.866;8.320;2023-03-26T01:57:00;99800.97;;;8.38;90.56
12868;BME280;33517;49.866;8.320;2023-03-26T02:00:02;99795.69;;;8.46;91.38
12868;BME280;33517;49.866;8.320;2023-03-26T02:03:12;99791.09;;;8.48;91.27
12868;BME280;33517;49.866;8.320;2023-03-26T02:06:14;99796.50;;;8.55;90.02
12868;BME280;33517;49.866;8.320;2023-03-26T02:09:10;99807.31;;;8.60;90.96
12868;BME280;33517;49.866;8.320;2023-03-26T02:12:07;99799.59;;;8.66;90.80
12868;BME280;33517;49.866;8.320;2023-03-26T02:15:00;99790.72;;;8.75;89.24
12868;BME280;33517;49.866;8.320;2023-03-26T02:17:52;99784.31;;;8.78;89.20
12868;BME280;33517;49.866;8.320;2023-03-26T02:20:44;99776.66;;;8.68;89.74
12868;BME280;33517;49.866;8.320;2023-03-26T02:23:36;99775.69;;;8.61;90.16
12868;BME280;33517;49.866;8.320;2023-03-26T02:26:30;99774.84;;;8.69;89.61
12868;BME280;33517;49.866;8.320;2023-03-26T02:29:24;99772.88;;;8.71;89.73
12868;BME280;33517;49.866;8.320;2023-03-26T02:32:16;99762.88;;;8.74;90.00
12868;BME280;33517;49.866;8.320;2023-03-26T02:35:10;99765.50;;;8.74;90.03
12868;BME280;33517;49.866;8.320;2023-03-26T02:38:03;99758.75;;;8.72;90.48
12868;BME280;33517;49.866;8.320;2023-03-26T02:40:56;99755.78;;;8.75;89.83
12868;BME280;33517;49.866;8.320;2023-03-26T02:43:48;99754.16;;;8.82;89.50
12868;BME280;33517;49.866;8.320;2023-03-26T02:46:41;99746.09;;;8.83;89.20
12868;BME280;33517;49.866;8.320;2023-03-26T02:49:33;99745.28;;;8.75;89.51
12868;BME280;33517;49.866;8.320;2023-03-26T02:52:25;99746.13;;;8.75;89.08
12868;BME280;33517;49.866;8.320;2023-03-26T02:55:17;99736.63;;;8.74;90.21
12868;BME280;33517;49.866;8.320;2023-03-26T02:58:09;99737.59;;;8.73;89.94
12868;BME280;33517;49.866;8.320;2023-03-26T03:01:01;99727.44;;;8.78;89.21
12868;BME280;33517;49.866;8.320;2023-03-26T03:03:56;99726.28;;;8.73;89.86
12868;BME280;33517;49.866;8.320;2023-03-26T03:06:48;99722.69;;;8.74;89.75
12868;BME280;33517;49.866;8.320;2023-03-26T03:09:47;99719.91;;;8.75;89.38
12868;BME280;33517;49.866;8.320;2023-03-26T03:12:40;99710.41;;;8.74;89.10
12868;BME280;33517;49.866;8.320;2023-03-26T03:15:32;99715.19;;;8.71;89.06
12868;BME280;33517;49.866;8.320;2023-03-26T03:18:24;99701.53;;;8.75;88.47
12868;BME280;33517;49.866;8.320;2023-03-26T03:21:17;99695.34;;;8.68;89.05
12868;BME280;33517;49.866;8.320;2023-03-26T03:24:09;99688.59;;;8.74;88.64
12868;BME280;33517;49.866;8.320;2023-03-26T03:27:03;99680.22;;;8.78;89.33
12868;BME280;33517;49.866;8.320;2023-03-26T03:29:55;99688.75;;;8.80;88.10
12868;BME280;33517;49.866;8.320;2023-03-26T03:32:48;99677.25;;;8.81;88.73
12868;BME280;33517;49.866;8.320;2023-03-26T03:35:40;99679.41;;;8.78;88.11
12868;BME280;33517;49.866;8.320;2023-03-26T03:38:33;99670.22;;;8.74;88.25
12868;BME280;33517;49.866;8.320;2023-03-26T03:41:25;99672.38;;;8.70;88.99
12868;BME280;33517;49.866;8.320;2023-03-26T03:44:17;99666.47;;;8.76;89.33
12868;BME280;33517;49.866;8.320;2023-03-26T03:47:09;99664.63;;;8.77;88.72
12868;BME280;33517;49.866;8.320;2023-03-26T03:50:03;99654.63;;;8.80;88.96
12868;BME280;33517;49.866;8.320;2023-03-26T03:52:56;99651.16;;;8.88;88.38
12868;BME280;33517;49.866;8.320;2023-03-26T03:55:50;99648.84;;;8.85;88.31
12868;BME280;33517;49.866;8.320;2023-03-26T03:58:43;99640.66;;;8.88;88.27
12868;BME280;33517;49.866;8.320;2023-03-26T04:01:36;99635.34;;;8.96;88.31
12868;BME280;33517;49.866;8.320;2023-03-26T04:04:28;99629.75;;;8.99;87.73
12868;BME280;33517;49.866;8.320;2023-03-26T04:07:22;99623.03;;;8.96;86.65
12868;BME280;33517;49.866;8.320;2023-03-26T04:10:15;99620.38;;;9.04;86.60
12868;BME280;33517;49.866;8.320;2023-03-26T04:13:08;99612.59;;;9.11;87.28
12868;BME280;33517;49.866;8.320;2023-03-26T04:16:00;99604.22;;;9.15;86.15
12868;BME280;33517;49.866;8.320;2023-03-26T04:18:51;99596.69;;;9.12;86.22
12868;BME280;33517;49.866;8.320;2023-03-26T04:21:43;99591.72;;;9.17;86.08
12868;BME280;33517;49.866;8.320;2023-03-26T04:24:35;99581.88;;;9.19;86.93
12868;BME280;33517;49.866;8.320;2023-03-26T04:27:30;99587.13;;;9.19;86.62
12868;BME280;33517;49.866;8.320;2023-03-26T04:30:26;99584.03;;;9.16;86.47
12868;BME280;33517;49.866;8.320;2023-03-26T04:33:18;99584.22;;;9.14;85.97
12868;BME280;33517;49.866;8.320;2023-03-26T04:36:10;99578.47;;;9.11;86.77
12868;BME280;33517;49.866;8.320;2023-03-26T04:39:03;99569.34;;;9.07;85.76
12868;BME280;33517;49.866;8.320;2023-03-26T04:41:56;99562.47;;;9.06;85.87
12868;BME280;33517;49.866;8.320;2023-03-26T04:44:48;99545.88;;;9.05;86.55
12868;BME280;33517;49.866;8.320;2023-03-26T04:47:43;99541.47;;;9.06;86.85
12868;BME280;33517;49.866;8.320;2023-03-26T04:50:35;99529.34;;;9.05;85.86
12868;BME280;33517;49.866;8.320;2023-03-26T04:53:27;99525.38;;;9.09;86.29
12868;BME280;33517;49.866;8.320;2023-03-26T04:56:29;99512.88;;;9.11;86.62
12868;BME280;33517;49.866;8.320;2023-03-26T04:59:25;99508.44;;;9.11;85.82
12868;BME280;33517;49.866;8.320;2023-03-26T05:02:19;99513.69;;;9.11;86.05
12868;BME280;33517;49.866;8.320;2023-03-26T05:05:13;99505.63;;;9.13;85.86
12868;BME280;33517;49.866;8.320;2023-03-26T05:08:05;99508.09;;;9.14;86.02
12868;BME280;33517;49.866;8.320;2023-03-26T05:10:57;99498.25;;;9.16;86.05
12868;BME280;33517;49.866;8.320;2023-03-26T05:13:49;99494.44;;;9.19;86.34
12868;BME280;33517;49.866;8.320;2023-03-26T05:16:41;99487.38;;;9.19;86.19
12868;BME280;33517;49.866;8.320;2023-03-26T05:19:34;99484.00;;;9.11;85.73
12868;BME280;33517;49.866;8.320;2023-03-26T05:22:27;99496.84;;;9.06;85.91
12868;BME280;33517;49.866;8.320;2023-03-26T05:25:19;99485.91;;;9.02;87.13
12868;BME280;33517;49.866;8.320;2023-03-26T05:28:11;99485.25;;;9.00;87.38
12868;BME280;33517;49.866;8.320;2023-03-26T05:31:03;99484.16;;;8.95;87.08
12868;BME280;33517;49.866;8.320;2023-03-26T05:33:55;99467.50;;;8.88;87.32
12868;BME280;33517;49.866;8.320;2023-03-26T05:36:47;99471.38;;;8.92;87.25
12868;BME280;33517;49.866;8.320;2023-03-26T05:39:40;99467.06;;;8.99;87.85
12868;BME280;33517;49.866;8.320;2023-03-26T05:42:33;99458.66;;;9.03;86.73
12868;BME280;33517;49.866;8.320;2023-03-26T05:45:25;99450.06;;;9.09;87.37
12868;BME280;33517;49.866;8.320;2023-03-26T05:48:17;99447.56;;;9.16;87.43
12868;BME280;33517;49.866;8.320;2023-03-26T05:51:10;99440.78;;;9.21;86.76
12868;BME280;33517;49.866;8.320;2023-03-26T05:54:02;99432.53;;;9.24;86.32
12868;BME280;33517;49.866;8.320;2023-03-26T05:56:55;99429.91;;;9.24;86.52
12868;BME280;33517;49.866;8.320;2023-03-26T05:59:47;99428.09;;;9.25;86.63
12868;BME280;33517;49.866;8.320;2023-03-26T06:02:39;99421.75;;;9.34;86.37
12868;BME280;33517;49.866;8.320;2023-03-26T06:05:33;99413.97;;;9.41;86.25
12868;BME280;33517;49.866;8.320;2023-03-26T06:08:26;99409.19;;;9.44;85.82
12868;BME280;33517;49.866;8.320;2023-03-26T06:11:19;99406.34;;;9.46;85.93
12868;BME280;33517;49.866;8.320;2023-03-26T06:14:12;99408.19;;;9.45;87.17
12868;BME280;33517;49.866;8.320;2023-03-26T06:17:04;99402.66;;;9.40;87.35
12868;BME280;33517;49.866;8.320;2023-03-26T06:19:56;99402.13;;;9.15;87.45
12868;BME280;33517;49.866;8.320;2023-03-26T06:22:48;99409.59;;;8.52;91.71
12868;BME280;33517;49.866;8.320;2023-03-26T06:25:39;99411.13;;;8.47;93.17
12868;BME280;33517;49.866;8.320;2023-03-26T06:28:33;99405.88;;;8.47;93.38
12868;BME280;33517;49.866;8.320;2023-03-26T06:31:27;99399.34;;;8.43;94.97
12868;BME280;33517;49.866;8.320;2023-03-26T06:34:19;99388.94;;;8.34;95.67
12868;BME280;33517;49.866;8.320;2023-03-26T06:37:11;99393.28;;;8.42;97.20
12868;BME280;33517;49.866;8.320;2023-03-26T06:40:04;99379.41;;;8.42;97.73
12868;BME280;33517;49.866;8.320;2023-03-26T06:42:56;99382.41;;;8.53;97.10
12868;BME280;33517;49.866;8.320;2023-03-26T06:45:49;99377.81;;;8.70;95.82
12868;BME280;33517;49.866;8.320;2023-03-26T06:48:43;99373.22;;;8.86;95.47
12868;BME280;33517;49.866;8.320;2023-03-26T06:51:34;99367.63;;;8.89;94.16
12868;BME280;33517;49.866;8.320;2023-03-26T06:54:28;99366.94;;;8.95;94.18
12868;BME280;33517;49.866;8.320;2023-03-26T06:57:20;99359.84;;;8.96;95.06
12868;BME280;33517;49.866;8.320;2023-03-26T07:00:13;99356.16;;;9.05;94.72
12868;BME280;33517;49.866;8.320;2023-03-26T07:03:05;99356.25;;;8.97;95.58
12868;BME280;33517;49.866;8.320;2023-03-26T07:05:58;99354.44;;;9.12;95.22
12868;BME280;33517;49.866;8.320;2023-03-26T07:08:50;99347.09;;;9.22;94.71
12868;BME280;33517;49.866;8.320;2023-03-26T07:11:42;99346.00;;;9.31;94.41
12868;BME280;33517;49.866;8.320;2023-03-26T07:14:34;99331.78;;;9.40;95.06
12868;BME280;33517;49.866;8.320;2023-03-26T07:17:28;99335.13;;;9.34;94.47
12868;BME280;33517;49.866;8.320;2023-03-26T07:20:20;99334.59;;;9.09;94.04
12868;BME280;33517;49.866;8.320;2023-03-26T07:23:14;99325.75;;;9.10;94.40
12868;BME280;33517;49.866;8.320;2023-03-26T07:26:20;99322.84;;;8.91;95.96
12868;BME280;33517;49.866;8.320;2023-03-26T07:29:17;99310.72;;;9.04;96.05
12868;BME280;33517;49.866;8.320;2023-03-26T07:32:15;99299.13;;;9.28;95.88
12868;BME280;33517;49.866;8.320;2023-03-26T07:35:16;99295.09;;;9.47;95.39
12868;BME280;33517;49.866;8.320;2023-03-26T07:38:27;99282.84;;;9.54;94.67
12868;BME280;33517;49.866;8.320;2023-03-26T07:41:28;99271.97;;;9.57;93.77
12868;BME280;33517;49.866;8.320;2023-03-26T07:44:43;99270.53;;;9.75;93.31
12868;BME280;33517;49.866;8.320;2023-03-26T07:47:41;99259.53;;;9.86;93.23
12868;BME280;33517;49.866;8.320;2023-03-26T07:50:35;99269.59;;;9.83;92.49
12868;BME280;33517;49.866;8.320;2023-03-26T07:53:28;99259.09;;;9.83;93.08
12868;BME280;33517;49.866;8.320;2023-03-26T07:56:26;99262.66;;;9.96;93.34
12868;BME280;33517;49.866;8.320;2023-03-26T07:59:22;99263.16;;;10.06;92.96
12868;BME280;33517;49.866;8.320;2023-03-26T08:05:38;99277.91;;;9.65;92.62
12868;BME280;33517;49.866;8.320;2023-03-26T08:08:38;99269.44;;;9.27;93.77
12868;BME280;33517;49.866;8.320;2023-03-26T08:11:44;99276.56;;;9.34;95.68
12868;BME280;33517;49.866;8.320;2023-03-26T08:14:46;99281.63;;;8.99;95.93
12868;BME280;33517;49.866;8.320;2023-03-26T08:17:43;99274.38;;;8.87;99.15
12868;BME280;33517;49.866;8.320;2023-03-26T08:20:39;99277.00;;;8.72;99.60
12868;BME280;33517;49.866;8.320;2023-03-26T08:23:39;99270.56;;;8.60;100.00
12868;BME280;33517;49.866;8.320;2023-03-26T08:26:43;99270.38;;;8.62;100.00
12868;BME280;33517;49.866;8.320;2023-03-26T08:29:40;99271.09;;;8.85;100.00
12868;BME280;33517;49.866;8.320;2023-03-26T08:32:39;99258.28;;;8.90;100.00
12868;BME280;33517;49.866;8.320;2023-03-26T08:35:31;99251.75;;;9.00;100.00
12868;BME280;33517;49.866;8.320;2023-03-26T08:38:24;99251.00;;;9.06;100.00
12868;BME280;33517;49.866;8.320;2023-03-26T08:45:06;99241.69;;;9.04;100.00
12868;BME280;33517;49.866;8.320;2023-03-26T08:48:44;99239.78;;;9.12;100.00
12868;BME280;33517;49.866;8.320;2023-03-26T08:51:57;99226.06;;;9.32;100.00
12868;BME280;33517;49.866;8.320;2023-03-26T08:55:23;99216.19;;;9.34;99.49
12868;BME280;33517;49.866;8.320;2023-03-26T09:05:25;99212.41;;;10.06;97.83
12868;BME280;33517;49.866;8.320;2023-03-26T09:08:39;99222.31;;;9.83;95.98
12868;BME280;33517;49.866;8.320;2023-03-26T09:12:06;99206.03;;;9.94;95.55
12868;BME280;33517;49.866;8.320;2023-03-26T09:26:24;99205.94;;;9.39;94.27
12868;BME280;33517;49.866;8.320;2023-03-26T09:29:46;99201.56;;;9.46;93.61
12868;BME280;33517;49.866;8.320;2023-03-26T09:33:08;99201.56;;;9.46;95.02
12868;BME280;33517;49.866;8.320;2023-03-26T09:36:19;99192.72;;;9.11;97.63
12868;BME280;33517;49.866;8.320;2023-03-26T09:39:16;99193.06;;;9.44;98.57
12868;BME280;33517;49.866;8.320;2023-03-26T09:42:16;99183.91;;;9.82;98.63
12868;BME280;33517;49.866;8.320;2023-03-26T09:45:35;99175.78;;;9.77;96.83
12868;BME280;33517;49.866;8.320;2023-03-26T09:48:54;99174.88;;;10.93;95.93
12868;BME280;33517;49.866;8.320;2023-03-26T09:52:01;99162.88;;;11.90;90.82
12868;BME280;33517;49.866;8.320;2023-03-26T09:55:17;99169.75;;;11.59;88.13
12868;BME280;33517;49.866;8.320;2023-03-26T09:58:53;99155.53;;;13.58;82.61
12868;BME280;33517;49.866;8.320;2023-03-26T10:01:56;99154.81;;;17.17;69.05
12868;BME280;33517;49.866;8.320;2023-03-26T10:05:16;99145.25;;;18.70;62.04
12868;BME280;33517;49.866;8.320;2023-03-26T10:08:21;99160.47;;;16.81;62.72
12868;BME280;33517;49.866;8.320;2023-03-26T10:11:22;99160.31;;;15.78;68.18
12868;BME280;33517;49.866;8.320;2023-03-26T10:14:21;99140.66;;;17.00;62.46
12868;BME280;33517;49.866;8.320;2023-03-26T10:17:30;99138.38;;;16.29;64.89
12868;BME280;33517;49.866;8.320;2023-03-26T10:20:32;99125.25;;;15.99;62.27
12868;BME280;33517;49.866;8.320;2023-03-26T10:23:46;99125.38;;;14.51;68.55
12868;BME280;33517;49.866;8.320;2023-03-26T10:26:56;99124.19;;;13.61;72.06
12868;BME280;33517;49.866;8.320;2023-03-26T10:30:18;99127.22;;;13.03;77.36
12868;BME280;33517;49.866;8.320;2023-03-26T10:33:19;99105.44;;;13.45;77.88
12868;BME280;33517;49.866;8.320;2023-03-26T10:36:24;99097.50;;;15.37;72.84
12868;BME280;33517;49.866;8.320;2023-03-26T10:39:49;99083.81;;;17.62;66.31
12868;BME280;33517;49.866;8.320;2023-03-26T10:43:10;99077.06;;;19.54;56.22
12868;BME280;33517;49.866;8.320;2023-03-26T10:49:49;99073.50;;;18.42;59.72
12868;BME280;33517;49.866;8.320;2023-03-26T10:52:50;99062.63;;;19.23;52.93
12868;BME280;33517;49.866;8.320;2023-03-26T10:55:48;99052.69;;;21.36;51.76
12868;BME280;33517;49.866;8.320;2023-03-26T10:58:43;99064.41;;;23.23;44.33
12868;BME280;33517;49.866;8.320;2023-03-26T11:01:41;99051.41;;;23.02;47.07
12868;BME280;33517;49.866;8.320;2023-03-26T11:04:42;99044.34;;;22.72;44.23
12868;BME280;33517;49.866;8.320;2023-03-26T11:07:43;99034.94;;;22.16;44.21
12868;BME280;33517;49.866;8.320;2023-03-26T11:10:48;99037.34;;;18.46;51.57
12868;BME280;33517;49.866;8.320;2023-03-26T11:13:49;99054.78;;;16.54;58.84
12868;BME280;33517;49.866;8.320;2023-03-26T11:16:53;99068.50;;;15.54;64.74
12868;BME280;33517;49.866;8.320;2023-03-26T11:19:51;99075.44;;;15.14;62.57
12868;BME280;33517;49.866;8.320;2023-03-26T11:22:55;99058.22;;;15.05;62.74
12868;BME280;33517;49.866;8.320;2023-03-26T11:26:04;99060.41;;;14.96;62.21
12868;BME280;33517;49.866;8.320;2023-03-26T11:29:05;99051.38;;;14.86;62.38
12868;BME280;33517;49.866;8.320;2023-03-26T11:32:03;99071.25;;;13.93;65.33
12868;BME280;33517;49.866;8.320;2023-03-26T11:34:59;99089.94;;;13.73;68.49
12868;BME280;33517;49.866;8.320;2023-03-26T11:37:55;99075.69;;;13.25;72.34
12868;BME280;33517;49.866;8.320;2023-03-26T11:40:53;99070.66;;;14.63;71.39
12868;BME280;33517;49.866;8.320;2023-03-26T11:43:50;99062.22;;;15.37;69.55
12868;BME280;33517;49.866;8.320;2023-03-26T11:46:46;99051.50;;;18.52;59.43
12868;BME280;33517;49.866;8.320;2023-03-26T11:49:40;99053.09;;;20.58;51.71
12868;BME280;33517;49.866;8.320;2023-03-26T11:52:32;99054.03;;;21.84;46.82
12868;BME280;33517;49.866;8.320;2023-03-26T11:55:24;99049.97;;;22.07;46.00
12868;BME280;33517;49.866;8.320;2023-03-26T11:58:24;99036.66;;;21.56;46.33
12868;BME280;33517;49.866;8.320;2023-03-26T12:01:24;99044.38;;;21.88;45.27
12868;BME280;33517;49.866;8.320;2023-03-26T12:04:25;99031.28;;;21.51;45.72
12868;BME280;33517;49.866;8.320;2023-03-26T12:07:18;99031.78;;;20.93;46.65
12868;BME280;33517;49.866;8.320;2023-03-26T12:10:21;99030.28;;;20.35;45.52
12868;BME280;33517;49.866;8.320;2023-03-26T12:13:27;99040.50;;;19.96;46.96
12868;BME280;33517;49.866;8.320;2023-03-26T12:16:21;99040.38;;;21.15;44.29
12868;BME280;33517;49.866;8.320;2023-03-26T12:19:18;99031.84;;;18.14;48.52
12868;BME280;33517;49.866;8.320;2023-03-26T12:22:27;99042.16;;;17.51;52.30
12868;BME280;33517;49.866;8.320;2023-03-26T12:25:21;99039.94;;;19.89;48.70
12868;BME280;33517;49.866;8.320;2023-03-26T12:28:18;99028.63;;;21.36;45.12
12868;BME280;33517;49.866;8.320;2023-03-26T12:31:11;99034.22;;;21.25;44.77
12868;BME280;33517;49.866;8.320;2023-03-26T12:34:15;99030.38;;;20.60;43.07
12868;BME280;33517;49.866;8.320;2023-03-26T12:37:30;99020.88;;;21.15;43.68
12868;BME280;33517;49.866;8.320;2023-03-26T12:40:27;98995.34;;;22.51;40.16
12868;BME280;33517;49.866;8.320;2023-03-26T12:43:21;99025.84;;;20.71;41.28
12868;BME280;33517;49.866;8.320;2023-03-26T12:46:21;99023.75;;;20.88;41.49
12868;BME280;33517;49.866;8.320;2023-03-26T12:49:16;99021.88;;;21.69;40.91
12868;BME280;33517;49.866;8.320;2023-03-26T12:52:18;99009.09;;;22.88;39.23
12868;BME280;33517;49.866;8.320;2023-03-26T12:55:26;99021.34;;;22.51;38.67
12868;BME280;33517;49.866;8.320;2023-03-26T12:58:35;99014.47;;;22.35;37.93
12868;BME280;33517;49.866;8.320;2023-03-26T13:01:40;98991.91;;;22.46;37.92
12868;BME280;33517;49.866;8.320;2023-03-26T13:04:56;99013.88;;;21.64;39.97
12868;BME280;33517;49.866;8.320;2023-03-26T13:07:58;99019.47;;;20.82;40.48
12868;BME280;33517;49.866;8.320;2023-03-26T13:11:01;99013.59;;;21.00;42.27
12868;BME280;33517;49.866;8.320;2023-03-26T13:14:15;99016.63;;;19.75;43.31
12868;BME280;33517;49.866;8.320;2023-03-26T13:17:19;99017.13;;;18.50;44.31
12868;BME280;33517;49.866;8.320;2023-03-26T13:20:18;99003.78;;;20.18;42.68
12868;BME280;33517;49.866;8.320;2023-03-26T13:23:24;99011.09;;;19.18;43.24
12868;BME280;33517;49.866;8.320;2023-03-26T13:26:36;99016.69;;;18.15;44.82
12868;BME280;33517;49.866;8.320;2023-03-26T13:29:38;99007.63;;;16.90;48.05
12868;BME280;33517;49.866;8.320;2023-03-26T13:32:46;99009.19;;;16.34;49.75
12868;BME280;33517;49.866;8.320;2023-03-26T13:35:47;99011.59;;;16.08;50.17
12868;BME280;33517;49.866;8.320;2023-03-26T13:38:50;99012.66;;;15.95;50.88
12868;BME280;33517;49.866;8.320;2023-03-26T13:41:56;99007.38;;;15.72;51.34
12868;BME280;33517;49.866;8.320;2023-03-26T13:45:01;99009.75;;;15.27;53.08
12868;BME280;33517;49.866;8.320;2023-03-26T13:47:56;99001.81;;;15.04;53.17
12868;BME280;33517;49.866;8.320;2023-03-26T13:50:56;99003.94;;;14.84;53.44
12868;BME280;33517;49.866;8.320;2023-03-26T13:53:53;99006.19;;;15.22;53.30
12868;BME280;33517;49.866;8.320;2023-03-26T13:56:49;98996.31;;;15.40;52.82
12868;BME280;33517;49.866;8.320;2023-03-26T13:59:46;98998.72;;;15.30;52.46
12868;BME280;33517;49.866;8.320;2023-03-26T14:02:40;98977.97;;;15.27;51.98
12868;BME280;33517;49.866;8.320;2023-03-26T14:05:37;98998.38;;;15.15;52.34
12868;BME280;33517;49.866;8.320;2023-03-26T14:08:35;98998.03;;;15.23;52.89
12868;BME280;33517;49.866;8.320;2023-03-26T14:11:37;98996.75;;;15.26;52.49
12868;BME280;33517;49.866;8.320;2023-03-26T14:14:37;98995.59;;;15.22;53.09
12868;BME280;33517;49.866;8.320;2023-03-26T14:17:36;98989.72;;;15.31;53.84
12868;BME280;33517;49.866;8.320;2023-03-26T14:20:50;98984.06;;;15.28;52.91
12868;BME280;33517;49.866;8.320;2023-03-26T14:27:44;98972.59;;;15.57;52.25
12868;BME280;33517;49.866;8.320;2023-03-26T14:30:57;98973.53;;;16.02;51.21
12868;BME280;33517;49.866;8.320;2023-03-26T14:33:59;98975.44;;;15.79;50.71
12868;BME280;33517;49.866;8.320;2023-03-26T14:37:21;98979.59;;;15.40;51.59
12868;BME280;33517;49.866;8.320;2023-03-26T14:40:27;98966.34;;;15.17;51.70
12868;BME280;33517;49.866;8.320;2023-03-26T14:43:34;98964.72;;;15.04;51.47
12868;BME280;33517;49.866;8.320;2023-03-26T14:46:38;98966.22;;;15.00;51.90
12868;BME280;33517;49.866;8.320;2023-03-26T14:52:54;98959.88;;;15.01;51.35
12868;BME280;33517;49.866;8.320;2023-03-26T14:56:14;98951.66;;;14.79;51.66
12868;BME280;33517;49.866;8.320;2023-03-26T14:59:34;98948.03;;;14.62;52.45
12868;BME280;33517;49.866;8.320;2023-03-26T15:06:14;98964.22;;;14.25;53.69
12868;BME280;33517;49.866;8.320;2023-03-26T15:13:14;98967.47;;;14.09;54.69
12868;BME280;33517;49.866;8.320;2023-03-26T15:16:35;98987.91;;;14.02;57.17
12868;BME280;33517;49.866;8.320;2023-03-26T15:19:56;99002.59;;;13.61;63.29
12868;BME280;33517;49.866;8.320;2023-03-26T15:23:31;98983.31;;;13.36;66.11
12868;BME280;33517;49.866;8.320;2023-03-26T15:27:12;98976.69;;;13.52;66.45
12868;BME280;33517;49.866;8.320;2023-03-26T15:30:47;98964.34;;;13.64;65.83
12868;BME280;33517;49.866;8.320;2023-03-26T15:40:47;99011.38;;;13.37;64.61
12868;BME280;33517;49.866;8.320;2023-03-26T15:44:06;99096.88;;;13.18;63.09
12868;BME280;33517;49.866;8.320;2023-03-26T15:50:47;99078.97;;;11.74;76.05
12868;BME280;33517;49.866;8.320;2023-03-26T15:53:46;99090.81;;;10.79;81.61
12868;BME280;33517;49.866;8.320;2023-03-26T15:57:00;99099.59;;;10.45;91.76
12868;BME280;33517;49.866;8.320;2023-03-26T16:00:11;99116.06;;;10.67;95.56
12868;BME280;33517;49.866;8.320;2023-03-26T16:03:19;99122.16;;;10.74;95.70
12868;BME280;33517;49.866;8.320;2023-03-26T16:06:29;99120.69;;;11.32;100.00
12868;BME280;33517;49.866;8.320;2023-03-26T16:09:35;99119.47;;;11.28;99.35
12868;BME280;33517;49.866;8.320;2023-03-26T16:12:32;99120.69;;;11.25;97.87
12868;BME280;33517;49.866;8.320;2023-03-26T16:15:28;99104.50;;;11.35;97.45
12868;BME280;33517;49.866;8.320;2023-03-26T16:18:27;99099.84;;;11.37;95.33
12868;BME280;33517;49.866;8.320;2023-03-26T16:21:37;99092.13;;;11.68;94.07
12868;BME280;33517;49.866;8.320;2023-03-26T16:24:33;99082.19;;;11.63;90.85
12868;BME280;33517;49.866;8.320;2023-03-26T16:27:27;99089.66;;;11.14;86.87
12868;BME280;33517;49.866;8.320;2023-03-26T16:30:27;99090.03;;;10.91;85.74
12868;BME280;33517;49.866;8.320;2023-03-26T16:33:20;99087.03;;;10.94;85.41
12868;BME280;33517;49.866;8.320;2023-03-26T16:36:30;99098.63;;;11.33;85.27
12868;BME280;33517;49.866;8.320;2023-03-26T16:39:39;99088.91;;;11.46;85.22
12868;BME280;33517;49.866;8.320;2023-03-26T16:42:35;99093.34;;;11.39;84.87
12868;BME280;33517;49.866;8.320;2023-03-26T16:45:33;99097.41;;;11.48;86.26
12868;BME280;33517;49.866;8.320;2023-03-26T16:48:34;99092.97;;;11.68;87.43